Delhi, MN

12:32 PM CDT on September 27, 2016 (GMT -0500)
Beaver Falls TWP | | Change Station

Elev 1007 ft 44.58 °N, 95.04 °W | Updated 11 minutes ago

Clear
Clear
60.5 °F
Feels Like 60.5 °F
N
18.4
Wind Variable Wind from SSE
Gusts 20.7 mph

Today
High -- | Low -- °F
--% Chance of Precip.
Yesterday
High -- | Low -- °F
Precip. -- in
Pressure 29.89 in
Visibility 10.0 miles
Clouds Clear
Dew Point 41 °F
Humidity 45%
Rainfall 0.00 in
Snow Depth Not available.
7:14 AM 7:07 PM
Waning Crescent, 10% visible
METAR KRWF 271653Z AUTO 31017G29KT 10SM CLR 16/01 A2989 RMK AO2 PK WND 30029/1649 SLP122 T01610011
Pressure 29.89 in
Visibility 10.0 miles
Clouds Clear
Dew Point 41 °F
Humidity 45%
Rainfall 0.00 in
Snow Depth Not available.
7:14 AM 7:07 PM
Waning Crescent, 10% visible
METAR KRWF 271653Z AUTO 31017G29KT 10SM CLR 16/01 A2989 RMK AO2 PK WND 30029/1649 SLP122 T01610011

10-Day Weather Forecast

Almanac

Astronomy

Sep. 27, 2016 Rise Set
Actual Time
Civil Twilight
Nautical Twilight
Astronomical Twilight
Moon
Length of Visible Light
Length of Day
Tomorrow will be .
, % of the Moon is Illuminated

Today's Extremes

State Highs State Lows

Community

WunderPhotos

Upload Photos

1,942,135 photos uploaded!

WunderBlog® & News

Nearby

Air Quality

  Air Quality AQ Index Pollutant
Not available.

Snow Depth

Station Depth Elevation

Earthquake Activity

City Distance Mag. Time & Date
Minimum magnitude displayed is 2.5.

Coastal Water Temperatures

Place Temperature

Stations

Nearby Weather Stations

Station Location Temp. Windchill Dew Point Humidity Wind Precip. Elev Updated Type
                   

Watches & Warnings

There are currently no watches in effect.